sensor_id;sensor_type;location;lat;lon;timestamp;P1;durP1;ratioP1;P2;durP2;ratioP2
17451;SDS011;8843;48.838;9.324;2023-11-22T00:01:56;5.40;;;3.33;;
17451;SDS011;8843;48.838;9.324;2023-11-22T00:04:23;3.27;;;2.43;;
17451;SDS011;8843;48.838;9.324;2023-11-22T00:06:50;3.73;;;1.87;;
17451;SDS011;8843;48.838;9.324;2023-11-22T00:09:17;2.73;;;2.20;;
17451;SDS011;8843;48.838;9.324;2023-11-22T00:11:47;2.27;;;2.00;;
17451;SDS011;8843;48.838;9.324;2023-11-22T00:14:14;2.60;;;2.30;;
17451;SDS011;8843;48.838;9.324;2023-11-22T00:16:42;2.30;;;2.10;;
17451;SDS011;8843;48.838;9.324;2023-11-22T00:19:09;2.37;;;2.13;;
17451;SDS011;8843;48.838;9.324;2023-11-22T00:21:36;2.57;;;2.13;;
17451;SDS011;8843;48.838;9.324;2023-11-22T00:24:03;2.53;;;2.33;;
17451;SDS011;8843;48.838;9.324;2023-11-22T00:26:30;2.83;;;2.20;;
17451;SDS011;8843;48.838;9.324;2023-11-22T00:28:57;3.17;;;2.80;;
17451;SDS011;8843;48.838;9.324;2023-11-22T00:31:24;2.77;;;2.20;;
17451;SDS011;8843;48.838;9.324;2023-11-22T00:33:52;3.13;;;2.33;;
17451;SDS011;8843;48.838;9.324;2023-11-22T00:36:19;3.60;;;2.17;;
17451;SDS011;8843;48.838;9.324;2023-11-22T00:38:46;2.97;;;2.70;;
17451;SDS011;8843;48.838;9.324;2023-11-22T00:41:13;2.40;;;2.20;;
17451;SDS011;8843;48.838;9.324;2023-11-22T00:43:40;2.90;;;2.70;;
17451;SDS011;8843;48.838;9.324;2023-11-22T00:46:07;2.97;;;2.37;;
17451;SDS011;8843;48.838;9.324;2023-11-22T00:48:35;2.10;;;1.90;;
17451;SDS011;8843;48.838;9.324;2023-11-22T00:51:03;2.63;;;2.30;;
17451;SDS011;8843;48.838;9.324;2023-11-22T00:53:34;2.43;;;2.23;;
17451;SDS011;8843;48.838;9.324;2023-11-22T00:56:02;3.00;;;2.70;;
17451;SDS011;8843;48.838;9.324;2023-11-22T00:58:29;3.03;;;2.70;;
17451;SDS011;8843;48.838;9.324;2023-11-22T01:00:56;2.47;;;2.27;;
17451;SDS011;8843;48.838;9.324;2023-11-22T01:03:23;2.87;;;2.60;;
17451;SDS011;8843;48.838;9.324;2023-11-22T01:05:49;3.53;;;3.17;;
17451;SDS011;8843;48.838;9.324;2023-11-22T01:08:18;2.97;;;2.67;;
17451;SDS011;8843;48.838;9.324;2023-11-22T01:10:45;2.90;;;2.70;;
17451;SDS011;8843;48.838;9.324;2023-11-22T01:13:12;3.57;;;3.27;;
17451;SDS011;8843;48.838;9.324;2023-11-22T01:15:39;2.90;;;2.60;;
17451;SDS011;8843;48.838;9.324;2023-11-22T01:18:06;2.93;;;2.60;;
17451;SDS011;8843;48.838;9.324;2023-11-22T01:20:33;2.57;;;2.37;;
17451;SDS011;8843;48.838;9.324;2023-11-22T01:23:00;2.40;;;2.20;;
17451;SDS011;8843;48.838;9.324;2023-11-22T01:25:29;3.17;;;2.87;;
17451;SDS011;8843;48.838;9.324;2023-11-22T01:27:56;3.03;;;2.70;;
17451;SDS011;8843;48.838;9.324;2023-11-22T01:30:22;3.37;;;3.07;;
17451;SDS011;8843;48.838;9.324;2023-11-22T01:32:49;3.27;;;2.97;;
17451;SDS011;8843;48.838;9.324;2023-11-22T01:35:16;3.50;;;3.07;;
17451;SDS011;8843;48.838;9.324;2023-11-22T01:37:43;3.83;;;3.10;;
17451;SDS011;8843;48.838;9.324;2023-11-22T01:40:10;3.17;;;2.83;;
17451;SDS011;8843;48.838;9.324;2023-11-22T01:42:39;3.20;;;2.77;;
17451;SDS011;8843;48.838;9.324;2023-11-22T01:45:06;2.87;;;2.60;;
17451;SDS011;8843;48.838;9.324;2023-11-22T01:47:34;3.00;;;2.60;;
17451;SDS011;8843;48.838;9.324;2023-11-22T01:50:01;3.07;;;2.70;;
17451;SDS011;8843;48.838;9.324;2023-11-22T01:52:30;2.50;;;2.30;;
17451;SDS011;8843;48.838;9.324;2023-11-22T01:54:57;2.70;;;2.50;;
17451;SDS011;8843;48.838;9.324;2023-11-22T01:57:24;2.60;;;2.40;;
17451;SDS011;8843;48.838;9.324;2023-11-22T01:59:52;3.23;;;2.90;;
17451;SDS011;8843;48.838;9.324;2023-11-22T02:02:20;3.73;;;2.30;;
17451;SDS011;8843;48.838;9.324;2023-11-22T02:04:47;3.00;;;2.70;;
17451;SDS011;8843;48.838;9.324;2023-11-22T02:07:14;2.50;;;2.30;;
17451;SDS011;8843;48.838;9.324;2023-11-22T02:09:41;4.13;;;2.63;;
17451;SDS011;8843;48.838;9.324;2023-11-22T02:12:08;2.83;;;2.53;;
17451;SDS011;8843;48.838;9.324;2023-11-22T02:14:35;2.90;;;2.70;;
17451;SDS011;8843;48.838;9.324;2023-11-22T02:17:04;3.07;;;2.70;;
17451;SDS011;8843;48.838;9.324;2023-11-22T02:19:31;3.67;;;2.77;;
17451;SDS011;8843;48.838;9.324;2023-11-22T02:21:58;2.80;;;2.60;;
17451;SDS011;8843;48.838;9.324;2023-11-22T02:24:26;3.53;;;2.93;;
17451;SDS011;8843;48.838;9.324;2023-11-22T02:26:53;2.90;;;2.60;;
17451;SDS011;8843;48.838;9.324;2023-11-22T02:29:20;3.00;;;2.70;;
17451;SDS011;8843;48.838;9.324;2023-11-22T02:31:49;2.60;;;2.40;;
17451;SDS011;8843;48.838;9.324;2023-11-22T02:34:16;2.70;;;2.50;;
17451;SDS011;8843;48.838;9.324;2023-11-22T02:36:42;2.97;;;2.67;;
17451;SDS011;8843;48.838;9.324;2023-11-22T02:39:09;2.77;;;2.57;;
17451;SDS011;8843;48.838;9.324;2023-11-22T02:41:39;2.90;;;2.40;;
17451;SDS011;8843;48.838;9.324;2023-11-22T02:44:06;2.93;;;2.63;;
17451;SDS011;8843;48.838;9.324;2023-11-22T02:46:33;5.17;;;3.50;;
17451;SDS011;8843;48.838;9.324;2023-11-22T02:49:00;2.87;;;2.53;;
17451;SDS011;8843;48.838;9.324;2023-11-22T02:51:27;3.03;;;2.83;;
17451;SDS011;8843;48.838;9.324;2023-11-22T02:53:54;2.73;;;2.50;;
17451;SDS011;8843;48.838;9.324;2023-11-22T02:56:20;3.23;;;2.93;;
17451;SDS011;8843;48.838;9.324;2023-11-22T02:58:49;3.40;;;3.10;;
17451;SDS011;8843;48.838;9.324;2023-11-22T03:01:15;2.77;;;2.40;;
17451;SDS011;8843;48.838;9.324;2023-11-22T03:03:42;3.37;;;3.07;;
17451;SDS011;8843;48.838;9.324;2023-11-22T03:06:09;3.87;;;2.80;;
17451;SDS011;8843;48.838;9.324;2023-11-22T03:08:36;2.70;;;2.50;;
17451;SDS011;8843;48.838;9.324;2023-11-22T03:11:03;2.70;;;2.50;;
17451;SDS011;8843;48.838;9.324;2023-11-22T03:13:30;3.00;;;2.70;;
17451;SDS011;8843;48.838;9.324;2023-11-22T03:15:58;3.63;;;2.93;;
17451;SDS011;8843;48.838;9.324;2023-11-22T03:18:25;3.00;;;2.57;;
17451;SDS011;8843;48.838;9.324;2023-11-22T03:20:52;2.90;;;2.60;;
17451;SDS011;8843;48.838;9.324;2023-11-22T03:23:20;3.70;;;2.60;;
17451;SDS011;8843;48.838;9.324;2023-11-22T03:25:47;3.00;;;2.70;;
17451;SDS011;8843;48.838;9.324;2023-11-22T03:28:14;2.50;;;2.30;;
17451;SDS011;8843;48.838;9.324;2023-11-22T03:30:41;3.07;;;2.77;;
17451;SDS011;8843;48.838;9.324;2023-11-22T03:33:09;2.80;;;2.60;;
17451;SDS011;8843;48.838;9.324;2023-11-22T03:35:36;3.63;;;2.93;;
17451;SDS011;8843;48.838;9.324;2023-11-22T03:38:03;3.77;;;3.30;;
17451;SDS011;8843;48.838;9.324;2023-11-22T03:40:30;5.90;;;4.57;;
17451;SDS011;8843;48.838;9.324;2023-11-22T03:42:57;3.80;;;3.17;;
17451;SDS011;8843;48.838;9.324;2023-11-22T03:45:23;3.43;;;3.00;;
17451;SDS011;8843;48.838;9.324;2023-11-22T03:47:50;3.93;;;3.13;;
17451;SDS011;8843;48.838;9.324;2023-11-22T03:50:19;3.20;;;2.90;;
17451;SDS011;8843;48.838;9.324;2023-11-22T03:52:46;4.40;;;2.70;;
17451;SDS011;8843;48.838;9.324;2023-11-22T03:55:13;3.20;;;2.63;;
17451;SDS011;8843;48.838;9.324;2023-11-22T03:57:40;3.50;;;3.00;;
17451;SDS011;8843;48.838;9.324;2023-11-22T04:00:07;5.03;;;3.20;;
17451;SDS011;8843;48.838;9.324;2023-11-22T04:02:37;3.33;;;2.70;;
17451;SDS011;8843;48.838;9.324;2023-11-22T04:05:04;3.10;;;2.53;;
17451;SDS011;8843;48.838;9.324;2023-11-22T04:07:33;3.37;;;2.97;;
17451;SDS011;8843;48.838;9.324;2023-11-22T04:10:00;3.80;;;3.43;;
17451;SDS011;8843;48.838;9.324;2023-11-22T04:12:27;3.23;;;2.93;;
17451;SDS011;8843;48.838;9.324;2023-11-22T04:14:54;3.60;;;3.30;;
17451;SDS011;8843;48.838;9.324;2023-11-22T04:17:20;2.77;;;2.53;;
17451;SDS011;8843;48.838;9.324;2023-11-22T04:19:47;3.37;;;3.07;;
17451;SDS011;8843;48.838;9.324;2023-11-22T04:22:14;4.03;;;3.63;;
17451;SDS011;8843;48.838;9.324;2023-11-22T04:24:42;3.83;;;2.83;;
17451;SDS011;8843;48.838;9.324;2023-11-22T04:27:11;3.23;;;2.93;;
17451;SDS011;8843;48.838;9.324;2023-11-22T04:29:37;3.13;;;2.80;;
17451;SDS011;8843;48.838;9.324;2023-11-22T04:32:05;4.73;;;2.90;;
17451;SDS011;8843;48.838;9.324;2023-11-22T04:34:33;3.37;;;3.00;;
17451;SDS011;8843;48.838;9.324;2023-11-22T04:37:00;4.10;;;2.80;;
17451;SDS011;8843;48.838;9.324;2023-11-22T04:39:27;4.27;;;2.87;;
17451;SDS011;8843;48.838;9.324;2023-11-22T04:41:55;2.93;;;2.57;;
17451;SDS011;8843;48.838;9.324;2023-11-22T04:44:22;3.00;;;2.80;;
17451;SDS011;8843;48.838;9.324;2023-11-22T04:46:48;3.20;;;2.90;;
17451;SDS011;8843;48.838;9.324;2023-11-22T04:49:16;3.70;;;3.13;;
17451;SDS011;8843;48.838;9.324;2023-11-22T04:51:43;3.10;;;2.80;;
17451;SDS011;8843;48.838;9.324;2023-11-22T04:54:10;3.20;;;2.90;;
17451;SDS011;8843;48.838;9.324;2023-11-22T04:56:37;4.43;;;2.67;;
17451;SDS011;8843;48.838;9.324;2023-11-22T04:59:05;2.70;;;2.50;;
17451;SDS011;8843;48.838;9.324;2023-11-22T05:01:32;3.63;;;3.03;;
17451;SDS011;8843;48.838;9.324;2023-11-22T05:03:59;4.23;;;3.20;;
17451;SDS011;8843;48.838;9.324;2023-11-22T05:06:26;3.03;;;2.70;;
17451;SDS011;8843;48.838;9.324;2023-11-22T05:08:54;2.73;;;2.50;;
17451;SDS011;8843;48.838;9.324;2023-11-22T05:11:21;2.93;;;2.63;;
17451;SDS011;8843;48.838;9.324;2023-11-22T05:13:48;5.07;;;2.63;;
17451;SDS011;8843;48.838;9.324;2023-11-22T05:16:16;3.17;;;2.87;;
17451;SDS011;8843;48.838;9.324;2023-11-22T05:18:43;3.70;;;3.07;;
17451;SDS011;8843;48.838;9.324;2023-11-22T05:21:10;3.40;;;3.10;;
17451;SDS011;8843;48.838;9.324;2023-11-22T05:23:37;5.13;;;2.93;;
17451;SDS011;8843;48.838;9.324;2023-11-22T05:26:04;3.37;;;2.80;;
17451;SDS011;8843;48.838;9.324;2023-11-22T05:28:31;3.33;;;3.03;;
17451;SDS011;8843;48.838;9.324;2023-11-22T05:30:58;3.53;;;2.80;;
17451;SDS011;8843;48.838;9.324;2023-11-22T05:33:26;3.77;;;3.03;;
17451;SDS011;8843;48.838;9.324;2023-11-22T05:35:53;2.70;;;2.50;;
17451;SDS011;8843;48.838;9.324;2023-11-22T05:38:20;3.23;;;2.93;;
17451;SDS011;8843;48.838;9.324;2023-11-22T05:40:47;3.23;;;2.93;;
17451;SDS011;8843;48.838;9.324;2023-11-22T05:43:14;4.37;;;3.57;;
17451;SDS011;8843;48.838;9.324;2023-11-22T05:45:41;3.43;;;3.13;;
17451;SDS011;8843;48.838;9.324;2023-11-22T05:48:08;4.07;;;3.03;;
17451;SDS011;8843;48.838;9.324;2023-11-22T05:50:36;4.00;;;2.80;;
17451;SDS011;8843;48.838;9.324;2023-11-22T05:53:03;3.37;;;3.03;;
17451;SDS011;8843;48.838;9.324;2023-11-22T05:55:30;2.57;;;2.37;;
17451;SDS011;8843;48.838;9.324;2023-11-22T05:57:57;3.07;;;2.80;;
17451;SDS011;8843;48.838;9.324;2023-11-22T06:00:24;5.07;;;2.90;;
17451;SDS011;8843;48.838;9.324;2023-11-22T06:02:51;4.00;;;3.70;;
17451;SDS011;8843;48.838;9.324;2023-11-22T06:05:18;3.03;;;2.73;;
17451;SDS011;8843;48.838;9.324;2023-11-22T06:07:46;3.30;;;2.80;;
17451;SDS011;8843;48.838;9.324;2023-11-22T06:10:13;3.93;;;3.03;;
17451;SDS011;8843;48.838;9.324;2023-11-22T06:12:41;5.27;;;3.83;;
17451;SDS011;8843;48.838;9.324;2023-11-22T06:15:09;4.63;;;3.23;;
17451;SDS011;8843;48.838;9.324;2023-11-22T06:17:36;5.10;;;3.27;;
17451;SDS011;8843;48.838;9.324;2023-11-22T06:20:03;3.30;;;2.80;;
17451;SDS011;8843;48.838;9.324;2023-11-22T06:22:31;3.77;;;3.37;;
17451;SDS011;8843;48.838;9.324;2023-11-22T06:25:00;3.87;;;3.50;;
17451;SDS011;8843;48.838;9.324;2023-11-22T06:27:27;4.40;;;3.40;;
17451;SDS011;8843;48.838;9.324;2023-11-22T06:30:17;4.30;;;3.73;;
17451;SDS011;8843;48.838;9.324;2023-11-22T06:32:46;4.47;;;3.17;;
17451;SDS011;8843;48.838;9.324;2023-11-22T06:35:13;3.30;;;3.00;;
17451;SDS011;8843;48.838;9.324;2023-11-22T06:37:40;3.47;;;3.00;;
17451;SDS011;8843;48.838;9.324;2023-11-22T06:40:09;3.30;;;3.00;;
17451;SDS011;8843;48.838;9.324;2023-11-22T06:42:37;4.43;;;3.00;;
17451;SDS011;8843;48.838;9.324;2023-11-22T06:45:16;3.13;;;2.77;;
17451;SDS011;8843;48.838;9.324;2023-11-22T06:47:44;3.43;;;2.70;;
17451;SDS011;8843;48.838;9.324;2023-11-22T06:50:11;3.40;;;2.83;;
17451;SDS011;8843;48.838;9.324;2023-11-22T06:52:39;3.63;;;2.70;;
17451;SDS011;8843;48.838;9.324;2023-11-22T06:55:06;3.73;;;2.40;;
17451;SDS011;8843;48.838;9.324;2023-11-22T06:57:36;3.10;;;2.80;;
17451;SDS011;8843;48.838;9.324;2023-11-22T07:00:03;3.43;;;2.50;;
17451;SDS011;8843;48.838;9.324;2023-11-22T07:02:32;3.57;;;2.70;;
17451;SDS011;8843;48.838;9.324;2023-11-22T07:05:00;3.10;;;2.50;;
17451;SDS011;8843;48.838;9.324;2023-11-22T07:07:28;2.30;;;2.20;;
17451;SDS011;8843;48.838;9.324;2023-11-22T07:09:54;3.07;;;2.50;;
17451;SDS011;8843;48.838;9.324;2023-11-22T07:12:25;3.00;;;2.60;;
17451;SDS011;8843;48.838;9.324;2023-11-22T07:14:52;3.53;;;2.57;;
17451;SDS011;8843;48.838;9.324;2023-11-22T07:17:19;2.53;;;2.30;;
17451;SDS011;8843;48.838;9.324;2023-11-22T07:19:47;2.27;;;2.07;;
17451;SDS011;8843;48.838;9.324;2023-11-22T07:22:16;4.60;;;2.43;;
17451;SDS011;8843;48.838;9.324;2023-11-22T07:24:44;2.87;;;2.57;;
17451;SDS011;8843;48.838;9.324;2023-11-22T07:27:12;2.50;;;2.20;;
17451;SDS011;8843;48.838;9.324;2023-11-22T07:29:41;5.20;;;2.30;;
17451;SDS011;8843;48.838;9.324;2023-11-22T07:32:08;2.50;;;2.30;;
17451;SDS011;8843;48.838;9.324;2023-11-22T07:34:36;3.70;;;2.50;;
17451;SDS011;8843;48.838;9.324;2023-11-22T07:37:04;5.27;;;2.50;;
17451;SDS011;8843;48.838;9.324;2023-11-22T07:39:32;2.70;;;2.50;;
17451;SDS011;8843;48.838;9.324;2023-11-22T07:42:00;3.33;;;2.50;;
17451;SDS011;8843;48.838;9.324;2023-11-22T07:44:27;3.50;;;2.60;;
17451;SDS011;8843;48.838;9.324;2023-11-22T07:46:59;3.43;;;3.00;;
17451;SDS011;8843;48.838;9.324;2023-11-22T07:49:25;3.67;;;3.07;;
17451;SDS011;8843;48.838;9.324;2023-11-22T07:51:52;3.40;;;2.80;;
17451;SDS011;8843;48.838;9.324;2023-11-22T07:54:19;2.70;;;2.30;;
17451;SDS011;8843;48.838;9.324;2023-11-22T07:56:47;3.00;;;2.70;;
17451;SDS011;8843;48.838;9.324;2023-11-22T07:59:14;3.97;;;2.80;;
17451;SDS011;8843;48.838;9.324;2023-11-22T08:01:42;4.37;;;3.00;;
17451;SDS011;8843;48.838;9.324;2023-11-22T08:04:11;4.97;;;2.97;;
17451;SDS011;8843;48.838;9.324;2023-11-22T08:06:39;2.80;;;2.60;;
17451;SDS011;8843;48.838;9.324;2023-11-22T08:09:06;4.83;;;3.53;;
17451;SDS011;8843;48.838;9.324;2023-11-22T08:11:34;3.67;;;3.07;;
17451;SDS011;8843;48.838;9.324;2023-11-22T08:14:01;4.03;;;2.73;;
17451;SDS011;8843;48.838;9.324;2023-11-22T08:16:28;3.50;;;3.00;;
17451;SDS011;8843;48.838;9.324;2023-11-22T08:18:55;3.07;;;2.77;;
17451;SDS011;8843;48.838;9.324;2023-11-22T08:21:24;3.10;;;2.80;;
17451;SDS011;8843;48.838;9.324;2023-11-22T08:23:50;4.27;;;3.37;;
17451;SDS011;8843;48.838;9.324;2023-11-22T08:26:18;3.40;;;2.77;;
17451;SDS011;8843;48.838;9.324;2023-11-22T08:28:45;3.03;;;2.73;;
17451;SDS011;8843;48.838;9.324;2023-11-22T08:31:12;3.30;;;3.00;;
17451;SDS011;8843;48.838;9.324;2023-11-22T08:33:41;4.80;;;3.20;;
17451;SDS011;8843;48.838;9.324;2023-11-22T08:36:08;3.90;;;3.10;;
17451;SDS011;8843;48.838;9.324;2023-11-22T08:38:37;3.47;;;2.90;;
17451;SDS011;8843;48.838;9.324;2023-11-22T08:41:06;4.40;;;3.13;;
17451;SDS011;8843;48.838;9.324;2023-11-22T08:43:38;5.50;;;3.60;;
17451;SDS011;8843;48.838;9.324;2023-11-22T08:46:05;3.20;;;2.87;;
17451;SDS011;8843;48.838;9.324;2023-11-22T08:48:33;4.20;;;2.90;;
17451;SDS011;8843;48.838;9.324;2023-11-22T08:51:00;4.77;;;2.97;;
17451;SDS011;8843;48.838;9.324;2023-11-22T08:53:29;3.33;;;2.90;;
17451;SDS011;8843;48.838;9.324;2023-11-22T08:55:57;5.00;;;3.03;;
17451;SDS011;8843;48.838;9.324;2023-11-22T08:58:24;3.10;;;2.70;;
17451;SDS011;8843;48.838;9.324;2023-11-22T09:00:52;3.13;;;2.57;;
17451;SDS011;8843;48.838;9.324;2023-11-22T09:03:19;3.17;;;2.67;;
17451;SDS011;8843;48.838;9.324;2023-11-22T09:05:46;4.47;;;3.17;;
17451;SDS011;8843;48.838;9.324;2023-11-22T09:08:14;5.17;;;3.33;;
17451;SDS011;8843;48.838;9.324;2023-11-22T09:10:41;3.53;;;3.23;;
17451;SDS011;8843;48.838;9.324;2023-11-22T09:13:11;4.23;;;2.97;;
17451;SDS011;8843;48.838;9.324;2023-11-22T09:15:41;3.77;;;3.37;;
17451;SDS011;8843;48.838;9.324;2023-11-22T09:18:09;3.57;;;3.20;;
17451;SDS011;8843;48.838;9.324;2023-11-22T09:20:37;3.63;;;2.90;;
17451;SDS011;8843;48.838;9.324;2023-11-22T09:23:04;3.30;;;3.00;;
17451;SDS011;8843;48.838;9.324;2023-11-22T09:25:31;5.00;;;3.00;;
17451;SDS011;8843;48.838;9.324;2023-11-22T09:28:00;6.07;;;3.37;;
17451;SDS011;8843;48.838;9.324;2023-11-22T09:30:28;5.47;;;3.47;;
17451;SDS011;8843;48.838;9.324;2023-11-22T09:33:00;4.30;;;3.73;;
17451;SDS011;8843;48.838;9.324;2023-11-22T09:35:27;5.23;;;3.33;;
17451;SDS011;8843;48.838;9.324;2023-11-22T09:37:56;6.43;;;3.77;;
17451;SDS011;8843;48.838;9.324;2023-11-22T09:40:23;3.83;;;3.43;;
17451;SDS011;8843;48.838;9.324;2023-11-22T09:42:52;5.17;;;3.40;;
17451;SDS011;8843;48.838;9.324;2023-11-22T09:45:20;4.60;;;3.80;;
17451;SDS011;8843;48.838;9.324;2023-11-22T09:47:49;4.80;;;3.20;;
17451;SDS011;8843;48.838;9.324;2023-11-22T09:50:17;3.80;;;3.33;;
17451;SDS011;8843;48.838;9.324;2023-11-22T09:52:49;3.87;;;3.47;;
17451;SDS011;8843;48.838;9.324;2023-11-22T09:55:19;3.87;;;3.10;;
17451;SDS011;8843;48.838;9.324;2023-11-22T09:57:48;3.97;;;3.57;;
17451;SDS011;8843;48.838;9.324;2023-11-22T10:00:16;4.17;;;3.20;;
17451;SDS011;8843;48.838;9.324;2023-11-22T10:02:46;4.00;;;3.57;;
17451;SDS011;8843;48.838;9.324;2023-11-22T10:05:15;4.93;;;3.33;;
17451;SDS011;8843;48.838;9.324;2023-11-22T10:07:42;3.63;;;3.33;;
17451;SDS011;8843;48.838;9.324;2023-11-22T10:10:13;4.50;;;3.60;;
17451;SDS011;8843;48.838;9.324;2023-11-22T10:12:42;3.43;;;2.80;;
17451;SDS011;8843;48.838;9.324;2023-11-22T10:15:12;6.30;;;3.17;;
17451;SDS011;8843;48.838;9.324;2023-11-22T10:17:41;5.43;;;3.47;;
17451;SDS011;8843;48.838;9.324;2023-11-22T10:20:22;3.40;;;3.00;;
17451;SDS011;8843;48.838;9.324;2023-11-22T10:22:51;4.87;;;3.47;;
17451;SDS011;8843;48.838;9.324;2023-11-22T10:25:19;4.60;;;3.83;;
17451;SDS011;8843;48.838;9.324;2023-11-22T10:27:48;5.03;;;3.77;;
17451;SDS011;8843;48.838;9.324;2023-11-22T10:30:16;4.37;;;3.80;;
17451;SDS011;8843;48.838;9.324;2023-11-22T10:32:43;4.47;;;3.10;;
17451;SDS011;8843;48.838;9.324;2023-11-22T10:35:12;4.40;;;3.57;;
17451;SDS011;8843;48.838;9.324;2023-11-22T10:37:41;5.63;;;3.93;;
17451;SDS011;8843;48.838;9.324;2023-11-22T10:40:10;5.33;;;3.70;;
17451;SDS011;8843;48.838;9.324;2023-11-22T10:42:39;5.37;;;3.60;;
17451;SDS011;8843;48.838;9.324;2023-11-22T10:45:07;4.10;;;3.53;;
17451;SDS011;8843;48.838;9.324;2023-11-22T10:47:35;4.90;;;3.97;;
17451;SDS011;8843;48.838;9.324;2023-11-22T10:50:04;4.57;;;3.70;;
17451;SDS011;8843;48.838;9.324;2023-11-22T10:52:35;4.33;;;3.83;;
17451;SDS011;8843;48.838;9.324;2023-11-22T10:55:03;3.43;;;3.13;;
17451;SDS011;8843;48.838;9.324;2023-11-22T10:57:31;3.47;;;3.17;;
17451;SDS011;8843;48.838;9.324;2023-11-22T11:00:02;6.40;;;4.00;;
17451;SDS011;8843;48.838;9.324;2023-11-22T11:02:33;4.27;;;3.50;;
17451;SDS011;8843;48.838;9.324;2023-11-22T11:05:07;3.77;;;3.33;;
17451;SDS011;8843;48.838;9.324;2023-11-22T11:07:42;5.17;;;3.80;;
17451;SDS011;8843;48.838;9.324;2023-11-22T11:10:14;4.10;;;3.70;;
17451;SDS011;8843;48.838;9.324;2023-11-22T11:12:41;4.87;;;4.20;;
17451;SDS011;8843;48.838;9.324;2023-11-22T11:15:09;4.23;;;3.83;;
17451;SDS011;8843;48.838;9.324;2023-11-22T11:17:36;5.63;;;4.10;;
17451;SDS011;8843;48.838;9.324;2023-11-22T11:20:05;4.47;;;4.00;;
17451;SDS011;8843;48.838;9.324;2023-11-22T11:22:33;4.50;;;4.10;;
17451;SDS011;8843;48.838;9.324;2023-11-22T11:25:03;4.30;;;3.90;;
17451;SDS011;8843;48.838;9.324;2023-11-22T11:27:32;6.73;;;4.60;;
17451;SDS011;8843;48.838;9.324;2023-11-22T11:30:00;4.40;;;3.97;;
17451;SDS011;8843;48.838;9.324;2023-11-22T11:32:31;4.57;;;3.90;;
17451;SDS011;8843;48.838;9.324;2023-11-22T11:35:00;6.47;;;4.27;;
17451;SDS011;8843;48.838;9.324;2023-11-22T11:37:31;5.87;;;4.07;;
17451;SDS011;8843;48.838;9.324;2023-11-22T11:39:58;5.03;;;3.60;;
17451;SDS011;8843;48.838;9.324;2023-11-22T11:42:26;3.73;;;3.40;;
17451;SDS011;8843;48.838;9.324;2023-11-22T11:45:05;4.10;;;3.70;;
17451;SDS011;8843;48.838;9.324;2023-11-22T11:47:35;6.53;;;4.70;;
17451;SDS011;8843;48.838;9.324;2023-11-22T11:50:02;5.80;;;4.30;;
17451;SDS011;8843;48.838;9.324;2023-11-22T11:52:29;4.70;;;4.10;;
17451;SDS011;8843;48.838;9.324;2023-11-22T11:54:57;6.00;;;4.13;;
17451;SDS011;8843;48.838;9.324;2023-11-22T11:57:24;4.63;;;3.83;;
17451;SDS011;8843;48.838;9.324;2023-11-22T11:59:56;4.97;;;4.00;;
17451;SDS011;8843;48.838;9.324;2023-11-22T12:02:24;4.97;;;3.50;;
17451;SDS011;8843;48.838;9.324;2023-11-22T12:04:51;5.33;;;4.20;;
17451;SDS011;8843;48.838;9.324;2023-11-22T12:07:18;4.70;;;4.17;;
17451;SDS011;8843;48.838;9.324;2023-11-22T12:09:45;4.50;;;3.83;;
17451;SDS011;8843;48.838;9.324;2023-11-22T12:12:12;4.83;;;4.13;;
17451;SDS011;8843;48.838;9.324;2023-11-22T12:14:41;6.23;;;4.33;;
17451;SDS011;8843;48.838;9.324;2023-11-22T12:17:09;5.47;;;3.73;;
17451;SDS011;8843;48.838;9.324;2023-11-22T12:19:35;4.87;;;4.07;;
17451;SDS011;8843;48.838;9.324;2023-11-22T12:22:02;5.10;;;4.20;;
17451;SDS011;8843;48.838;9.324;2023-11-22T12:24:32;4.70;;;3.97;;
17451;SDS011;8843;48.838;9.324;2023-11-22T12:26:59;5.47;;;4.00;;
17451;SDS011;8843;48.838;9.324;2023-11-22T12:29:26;4.77;;;4.20;;
17451;SDS011;8843;48.838;9.324;2023-11-22T12:31:54;4.03;;;3.17;;
17451;SDS011;8843;48.838;9.324;2023-11-22T12:34:22;4.00;;;3.60;;
17451;SDS011;8843;48.838;9.324;2023-11-22T12:36:49;6.97;;;3.90;;
17451;SDS011;8843;48.838;9.324;2023-11-22T12:39:16;4.27;;;3.60;;
17451;SDS011;8843;48.838;9.324;2023-11-22T12:41:48;3.90;;;3.60;;
17451;SDS011;8843;48.838;9.324;2023-11-22T12:44:16;4.93;;;3.60;;
17451;SDS011;8843;48.838;9.324;2023-11-22T12:46:46;5.10;;;3.90;;
17451;SDS011;8843;48.838;9.324;2023-11-22T12:49:18;6.30;;;4.47;;
17451;SDS011;8843;48.838;9.324;2023-11-22T12:51:46;4.50;;;4.00;;
17451;SDS011;8843;48.838;9.324;2023-11-22T12:54:14;3.97;;;3.47;;
17451;SDS011;8843;48.838;9.324;2023-11-22T12:56:41;4.27;;;3.43;;
17451;SDS011;8843;48.838;9.324;2023-11-22T12:59:08;4.53;;;3.70;;
17451;SDS011;8843;48.838;9.324;2023-11-22T13:01:35;4.57;;;3.57;;
17451;SDS011;8843;48.838;9.324;2023-11-22T13:04:02;3.90;;;3.60;;
17451;SDS011;8843;48.838;9.324;2023-11-22T13:06:31;4.17;;;3.10;;
17451;SDS011;8843;48.838;9.324;2023-11-22T13:08:57;3.80;;;3.43;;
17451;SDS011;8843;48.838;9.324;2023-11-22T13:11:24;6.40;;;3.40;;
17451;SDS011;8843;48.838;9.324;2023-11-22T13:13:51;3.50;;;3.20;;
17451;SDS011;8843;48.838;9.324;2023-11-22T13:16:18;4.60;;;3.83;;
17451;SDS011;8843;48.838;9.324;2023-11-22T13:18:45;4.00;;;3.57;;
17451;SDS011;8843;48.838;9.324;2023-11-22T13:21:13;4.50;;;3.53;;
17451;SDS011;8843;48.838;9.324;2023-11-22T13:23:42;5.13;;;3.60;;
17451;SDS011;8843;48.838;9.324;2023-11-22T13:26:08;4.50;;;3.67;;
17451;SDS011;8843;48.838;9.324;2023-11-22T13:28:38;3.83;;;3.53;;
17451;SDS011;8843;48.838;9.324;2023-11-22T13:31:06;4.03;;;3.50;;
17451;SDS011;8843;48.838;9.324;2023-11-22T13:33:33;5.03;;;3.90;;
17451;SDS011;8843;48.838;9.324;2023-11-22T13:36:00;4.40;;;3.87;;
17451;SDS011;8843;48.838;9.324;2023-11-22T13:38:27;4.30;;;3.53;;
17451;SDS011;8843;48.838;9.324;2023-11-22T13:40:55;4.07;;;3.67;;
17451;SDS011;8843;48.838;9.324;2023-11-22T13:43:23;5.20;;;4.47;;
17451;SDS011;8843;48.838;9.324;2023-11-22T13:45:50;4.87;;;3.33;;
17451;SDS011;8843;48.838;9.324;2023-11-22T13:48:17;4.50;;;4.03;;
17451;SDS011;8843;48.838;9.324;2023-11-22T13:50:44;4.87;;;3.60;;
17451;SDS011;8843;48.838;9.324;2023-11-22T13:53:11;4.50;;;3.53;;
17451;SDS011;8843;48.838;9.324;2023-11-22T13:55:38;4.77;;;4.27;;
17451;SDS011;8843;48.838;9.324;2023-11-22T13:58:06;4.60;;;3.63;;
17451;SDS011;8843;48.838;9.324;2023-11-22T14:00:34;3.90;;;3.43;;
17451;SDS011;8843;48.838;9.324;2023-11-22T14:03:01;5.03;;;4.10;;
17451;SDS011;8843;48.838;9.324;2023-11-22T14:05:33;5.40;;;3.93;;
17451;SDS011;8843;48.838;9.324;2023-11-22T14:08:01;5.73;;;3.40;;
17451;SDS011;8843;48.838;9.324;2023-11-22T14:10:29;3.50;;;3.20;;
17451;SDS011;8843;48.838;9.324;2023-11-22T14:12:57;4.23;;;3.83;;
17451;SDS011;8843;48.838;9.324;2023-11-22T14:15:26;4.00;;;3.50;;
17451;SDS011;8843;48.838;9.324;2023-11-22T14:17:54;3.83;;;3.37;;
17451;SDS011;8843;48.838;9.324;2023-11-22T14:20:21;4.07;;;3.53;;
17451;SDS011;8843;48.838;9.324;2023-11-22T14:22:49;4.07;;;3.67;;
17451;SDS011;8843;48.838;9.324;2023-11-22T14:25:16;4.20;;;3.37;;
17451;SDS011;8843;48.838;9.324;2023-11-22T14:27:44;4.47;;;3.83;;
17451;SDS011;8843;48.838;9.324;2023-11-22T14:30:12;4.67;;;4.17;;
17451;SDS011;8843;48.838;9.324;2023-11-22T14:32:44;5.07;;;4.07;;
17451;SDS011;8843;48.838;9.324;2023-11-22T14:35:11;4.30;;;3.90;;
17451;SDS011;8843;48.838;9.324;2023-11-22T14:37:38;3.80;;;3.50;;
17451;SDS011;8843;48.838;9.324;2023-11-22T14:40:06;4.97;;;4.40;;
17451;SDS011;8843;48.838;9.324;2023-11-22T14:42:38;6.50;;;4.07;;
17451;SDS011;8843;48.838;9.324;2023-11-22T14:45:06;4.40;;;3.93;;
17451;SDS011;8843;48.838;9.324;2023-11-22T14:47:34;4.73;;;3.47;;
17451;SDS011;8843;48.838;9.324;2023-11-22T14:50:03;3.53;;;3.23;;
17451;SDS011;8843;48.838;9.324;2023-11-22T14:52:31;5.30;;;3.67;;
17451;SDS011;8843;48.838;9.324;2023-11-22T14:54:57;5.33;;;4.00;;
17451;SDS011;8843;48.838;9.324;2023-11-22T14:57:25;4.20;;;3.60;;
17451;SDS011;8843;48.838;9.324;2023-11-22T14:59:52;5.87;;;4.27;;
17451;SDS011;8843;48.838;9.324;2023-11-22T15:02:21;3.80;;;3.37;;
17451;SDS011;8843;48.838;9.324;2023-11-22T15:04:48;4.43;;;4.03;;